Time;durP1;ratioP1;P1;durP2;ratioP2;P2;SDS_P1;SDS_P2;PMS_P1;PMS_P2;Temp;Humidity;BMP_temperature;BMP_pressure;BME280_temperature;BME280_humidity;BME280_pressure;Samples;Min_cycle;Max_cycle;Signal;HPM_P1;HPM_P2
2023/06/06 00:00:09;;;;;;;6.28;3.28;;;;;;;;;;5134765;27;20516;-58
2023/06/06 00:02:40;;;;;;;7.25;3.67;;;;;;;;;;5135844;27;20058;-58
2023/06/06 00:05:08;;;;;;;3.78;2.70;;;;;;;;;;5135584;27;20415;-58
2023/06/06 00:07:40;;;;;;;4.68;3.20;;;;;;;;;;5134764;27;20475;-58
2023/06/06 00:10:08;;;;;;;6.15;3.50;;;;;;;;;;5135941;27;20058;-58
2023/06/06 00:12:35;;;;;;;4.35;3.05;;;;;;;;;;5135492;27;20055;-59
2023/06/06 00:15:03;;;;;;;9.57;3.03;;;;;;;;;;5137389;27;20055;-58
2023/06/06 00:17:30;;;;;;;5.00;3.22;;;;;;;;;;5135618;27;20050;-58
2023/06/06 00:19:56;;;;;;;5.72;3.53;;;;;;;;;;5134874;27;20051;-59
2023/06/06 00:22:24;;;;;;;5.35;3.00;;;;;;;;;;5135518;27;20058;-58
2023/06/06 00:24:55;;;;;;;4.03;2.90;;;;;;;;;;5133014;27;20051;-58
2023/06/06 00:27:22;;;;;;;3.95;3.28;;;;;;;;;;5127775;27;20047;-58
2023/06/06 00:29:49;;;;;;;5.93;3.30;;;;;;;;;;5133780;27;20055;-58
2023/06/06 00:32:16;;;;;;;4.65;3.70;;;;;;;;;;5134348;27;20047;-58
2023/06/06 00:34:43;;;;;;;5.28;3.30;;;;;;;;;;5135021;27;20507;-58
2023/06/06 00:37:10;;;;;;;5.50;3.70;;;;;;;;;;5131006;27;20047;-58
2023/06/06 00:39:36;;;;;;;3.83;2.97;;;;;;;;;;5117101;27;20051;-58
2023/06/06 00:42:05;;;;;;;4.55;3.45;;;;;;;;;;5133419;27;20044;-58
2023/06/06 00:44:32;;;;;;;5.15;3.03;;;;;;;;;;5118780;27;20059;-58
2023/06/06 00:46:59;;;;;;;4.60;3.20;;;;;;;;;;5134832;27;20475;-58
2023/06/06 00:49:26;;;;;;;4.68;3.17;;;;;;;;;;5134824;27;20058;-58
2023/06/06 00:51:53;;;;;;;5.97;3.72;;;;;;;;;;5133962;27;20484;-58
2023/06/06 00:54:20;;;;;;;4.65;3.67;;;;;;;;;;5114150;28;20047;-58
2023/06/06 00:56:48;;;;;;;5.20;3.15;;;;;;;;;;5130648;27;20058;-58
2023/06/06 00:59:16;;;;;;;4.45;3.15;;;;;;;;;;5119536;27;20054;-58
2023/06/06 01:01:47;;;;;;;5.70;3.50;;;;;;;;;;5133961;27;20047;-58
2023/06/06 01:04:15;;;;;;;5.45;3.22;;;;;;;;;;5134367;27;20058;-58
2023/06/06 01:06:42;;;;;;;6.65;3.85;;;;;;;;;;5133993;27;20047;-58
2023/06/06 01:09:11;;;;;;;5.78;3.60;;;;;;;;;;5134348;27;20434;-58
2023/06/06 01:11:45;;;;;;;4.85;3.38;;;;;;;;;;5134114;27;20043;-58
2023/06/06 01:14:16;;;;;;;4.25;3.53;;;;;;;;;;5132000;27;20050;-58
2023/06/06 01:16:45;;;;;;;6.65;4.05;;;;;;;;;;5134071;27;20415;-58
2023/06/06 01:19:14;;;;;;;5.63;4.00;;;;;;;;;;5133985;27;20054;-58
2023/06/06 01:21:41;;;;;;;;;;;;;;;;;;5134342;27;20051;-58
2023/06/06 01:24:09;;;;;;;4.25;3.65;;;;;;;;;;5134097;27;19919;-59
2023/06/06 01:26:36;;;;;;;6.10;3.50;;;;;;;;;;5134202;27;20062;-58
2023/06/06 01:29:03;;;;;;;5.70;3.78;;;;;;;;;;5133860;27;20442;-59
2023/06/06 01:31:33;;;;;;;5.90;3.63;;;;;;;;;;5134122;27;20066;-57
2023/06/06 01:34:02;;;;;;;4.75;3.70;;;;;;;;;;5133681;27;20050;-58
2023/06/06 01:36:31;;;;;;;6.57;4.30;;;;;;;;;;5133879;27;20055;-58
2023/06/06 01:39:00;;;;;;;5.30;3.88;;;;;;;;;;5133314;27;20055;-58
2023/06/06 01:41:27;;;;;;;;;;;;;;;;;;5133513;27;20058;-58
2023/06/06 01:43:56;;;;;;;6.03;3.83;;;;;;;;;;5133049;27;20376;-59
2023/06/06 01:46:24;;;;;;;8.73;4.47;;;;;;;;;;5135254;27;20054;-58
2023/06/06 01:48:51;;;;;;;5.20;4.50;;;;;;;;;;5133864;27;20055;-58
2023/06/06 01:51:21;;;;;;;6.38;4.45;;;;;;;;;;5133340;27;20047;-58
2023/06/06 01:53:47;;;;;;;7.40;4.50;;;;;;;;;;5133932;27;20050;-58
2023/06/06 01:56:14;;;;;;;6.93;4.13;;;;;;;;;;5133422;27;20051;-59
2023/06/06 01:58:43;;;;;;;7.70;4.15;;;;;;;;;;5132793;27;20047;-58
2023/06/06 02:01:11;;;;;;;5.53;4.20;;;;;;;;;;5134622;27;20058;-58
2023/06/06 02:03:38;;;;;;;5.95;5.00;;;;;;;;;;5140495;27;20050;-57
2023/06/06 02:06:05;;;;;;;6.28;4.88;;;;;;;;;;5139993;27;20055;-58
2023/06/06 02:08:32;;;;;;;6.90;4.63;;;;;;;;;;5140329;27;20510;-58
2023/06/06 02:10:59;;;;;;;5.50;4.88;;;;;;;;;;5140549;27;20051;-58
2023/06/06 02:13:26;;;;;;;6.28;5.30;;;;;;;;;;5140695;27;20055;-58
2023/06/06 02:15:53;;;;;;;8.55;5.22;;;;;;;;;;5139976;27;20047;-61
2023/06/06 02:18:21;;;;;;;7.72;5.25;;;;;;;;;;5140394;27;20065;-61
2023/06/06 02:20:48;;;;;;;8.13;5.68;;;;;;;;;;5140320;27;20062;-61
2023/06/06 02:23:15;;;;;;;8.75;5.25;;;;;;;;;;5140514;27;20530;-61
2023/06/06 02:25:42;;;;;;;9.05;5.78;;;;;;;;;;5140286;27;20062;-61
2023/06/06 02:28:09;;;;;;;7.90;5.50;;;;;;;;;;5140164;27;20051;-61
2023/06/06 02:30:36;;;;;;;8.00;5.45;;;;;;;;;;5138938;27;20055;-60
2023/06/06 02:33:07;;;;;;;7.07;4.90;;;;;;;;;;5140264;27;20047;-61
2023/06/06 02:35:36;;;;;;;8.88;6.20;;;;;;;;;;5140330;27;20479;-60
2023/06/06 02:38:05;;;;;;;9.48;6.43;;;;;;;;;;5140317;27;20495;-63
2023/06/06 02:40:32;;;;;;;7.68;5.85;;;;;;;;;;5140199;27;20055;-61
2023/06/06 02:42:59;;;;;;;7.78;5.60;;;;;;;;;;5140304;27;20051;-61
2023/06/06 02:45:26;;;;;;;7.57;5.47;;;;;;;;;;5141255;27;20046;-61
2023/06/06 02:47:54;;;;;;;9.90;6.07;;;;;;;;;;5140209;27;20047;-61
2023/06/06 02:50:21;;;;;;;7.57;5.30;;;;;;;;;;5140158;27;20493;-61
2023/06/06 02:52:51;;;;;;;11.07;6.28;;;;;;;;;;5140201;27;20054;-58
2023/06/06 02:55:18;;;;;;;7.65;5.40;;;;;;;;;;5139534;27;20055;-59
2023/06/06 02:57:45;;;;;;;8.20;5.80;;;;;;;;;;5140135;27;20062;-59
2023/06/06 03:00:12;;;;;;;7.78;5.82;;;;;;;;;;5139002;27;20051;-58
2023/06/06 03:02:39;;;;;;;7.07;5.68;;;;;;;;;;5139961;27;20518;-58
2023/06/06 03:05:06;;;;;;;8.18;5.80;;;;;;;;;;5140024;27;20055;-61
2023/06/06 03:07:33;;;;;;;8.57;5.70;;;;;;;;;;5139753;27;20387;-61
2023/06/06 03:10:01;;;;;;;7.65;5.60;;;;;;;;;;5139939;27;20411;-61
2023/06/06 03:12:30;;;;;;;7.70;5.57;;;;;;;;;;5139864;27;20128;-61
2023/06/06 03:14:57;;;;;;;9.07;5.82;;;;;;;;;;5134650;27;20058;-60
2023/06/06 03:17:23;;;;;;;9.38;5.93;;;;;;;;;;5136083;27;20480;-61
2023/06/06 03:19:54;;;;;;;8.68;6.10;;;;;;;;;;5136588;27;20047;-61
2023/06/06 03:22:20;;;;;;;7.82;5.57;;;;;;;;;;5136536;27;20383;-60
2023/06/06 03:24:49;;;;;;;6.88;5.38;;;;;;;;;;5136598;27;20051;-60
2023/06/06 03:27:17;;;;;;;8.57;6.00;;;;;;;;;;5138229;27;20050;-61
2023/06/06 03:29:44;;;;;;;8.52;5.93;;;;;;;;;;5136661;27;20058;-61
2023/06/06 03:32:11;;;;;;;9.90;6.80;;;;;;;;;;5136557;27;20051;-61
2023/06/06 03:34:39;;;;;;;8.82;5.75;;;;;;;;;;5136436;27;20054;-62
2023/06/06 03:37:06;;;;;;;8.63;5.95;;;;;;;;;;5135811;27;20043;-61
2023/06/06 03:39:36;;;;;;;7.45;5.88;;;;;;;;;;5136250;27;20047;-61
2023/06/06 03:42:02;;;;;;;8.15;6.05;;;;;;;;;;5134806;27;20054;-61
2023/06/06 03:44:31;;;;;;;9.40;6.40;;;;;;;;;;5136343;27;20051;-61
2023/06/06 03:46:57;;;;;;;12.38;6.90;;;;;;;;;;5135740;27;20055;-61
2023/06/06 03:49:24;;;;;;;10.10;6.47;;;;;;;;;;5136103;27;20504;-61
2023/06/06 03:51:51;;;;;;;8.80;6.00;;;;;;;;;;5135404;27;20043;-61
2023/06/06 03:54:18;;;;;;;9.02;6.30;;;;;;;;;;5135736;27;20051;-58
2023/06/06 03:56:45;;;;;;;8.30;6.65;;;;;;;;;;5133939;27;20503;-58
2023/06/06 03:59:12;;;;;;;10.90;6.70;;;;;;;;;;5136044;27;20082;-58
2023/06/06 04:01:41;;;;;;;11.20;7.45;;;;;;;;;;5135610;27;20507;-59
2023/06/06 04:04:09;;;;;;;8.70;6.68;;;;;;;;;;5135626;27;20047;-58
2023/06/06 04:06:39;;;;;;;13.55;8.10;;;;;;;;;;5133776;27;20051;-58
2023/06/06 04:09:08;;;;;;;10.23;7.53;;;;;;;;;;5136117;27;20047;-58
2023/06/06 04:11:38;;;;;;;9.98;6.75;;;;;;;;;;5135120;27;20051;-59
2023/06/06 04:14:05;;;;;;;9.65;5.88;;;;;;;;;;5135939;27;20047;-58
2023/06/06 04:16:31;;;;;;;9.05;6.63;;;;;;;;;;5135005;27;20417;-58
2023/06/06 04:19:04;;;;;;;7.60;6.00;;;;;;;;;;5135028;27;20051;-61
2023/06/06 04:21:32;;;;;;;10.65;5.85;;;;;;;;;;5135268;27;20055;-60
2023/06/06 04:23:59;;;;;;;8.90;6.30;;;;;;;;;;5135434;27;20051;-63
2023/06/06 04:26:31;;;;;;;11.73;6.18;;;;;;;;;;5133396;27;20051;-60
2023/06/06 04:28:58;;;;;;;8.88;6.10;;;;;;;;;;5132618;27;20051;-61
2023/06/06 04:31:26;;;;;;;8.65;5.95;;;;;;;;;;5134003;27;20062;-60
2023/06/06 04:33:55;;;;;;;8.00;6.25;;;;;;;;;;5134314;27;20412;-61
2023/06/06 04:36:24;;;;;;;7.93;6.53;;;;;;;;;;5134765;27;20522;-61
2023/06/06 04:38:51;;;;;;;8.27;6.25;;;;;;;;;;5134841;27;20054;-61
2023/06/06 04:41:20;;;;;;;7.32;6.25;;;;;;;;;;5134722;27;20491;-61
2023/06/06 04:43:49;;;;;;;9.07;6.68;;;;;;;;;;5133894;27;20051;-61
2023/06/06 04:46:21;;;;;;;8.80;6.53;;;;;;;;;;5134831;27;20047;-61
2023/06/06 04:48:52;;;;;;;8.10;6.75;;;;;;;;;;5135366;27;20471;-61
2023/06/06 04:51:20;;;;;;;7.68;6.55;;;;;;;;;;5130107;27;20059;-61
2023/06/06 04:53:50;;;;;;;9.63;6.55;;;;;;;;;;5131308;27;20487;-61
2023/06/06 04:56:17;;;;;;;10.10;6.53;;;;;;;;;;5128921;27;20055;-61
2023/06/06 04:58:45;;;;;;;10.75;6.78;;;;;;;;;;5132055;27;20399;-61
2023/06/06 05:01:13;;;;;;;7.95;6.63;;;;;;;;;;5130871;27;20050;-61
2023/06/06 05:03:40;;;;;;;8.35;6.80;;;;;;;;;;5128628;27;20399;-61
2023/06/06 05:06:07;;;;;;;9.43;6.22;;;;;;;;;;5129821;27;20047;-56
2023/06/06 05:08:41;;;;;;;9.93;6.60;;;;;;;;;;5122123;27;20058;-53
2023/06/06 05:11:09;;;;;;;9.60;7.00;;;;;;;;;;5123247;27;20052;-53
2023/06/06 05:13:36;;;;;;;12.20;8.32;;;;;;;;;;5112477;27;20043;-44
2023/06/06 05:16:02;;;;;;;9.65;8.32;;;;;;;;;;5130458;27;20058;-44
2023/06/06 05:18:30;;;;;;;12.85;7.97;;;;;;;;;;5126019;27;20047;-44
2023/06/06 05:21:00;;;;;;;13.43;8.40;;;;;;;;;;5129607;27;20476;-43
2023/06/06 05:23:27;;;;;;;10.98;8.07;;;;;;;;;;5132750;27;20043;-44
2023/06/06 05:25:56;;;;;;;14.20;8.75;;;;;;;;;;5129698;27;20062;-43
2023/06/06 05:28:25;;;;;;;9.98;8.38;;;;;;;;;;5128684;27;20055;-43
2023/06/06 05:30:53;;;;;;;11.57;9.07;;;;;;;;;;5132017;27;20066;-43
2023/06/06 05:33:19;;;;;;;14.02;9.48;;;;;;;;;;5132286;27;20043;-43
2023/06/06 05:35:46;;;;;;;11.57;9.00;;;;;;;;;;5132005;27;20073;-43
2023/06/06 05:38:14;;;;;;;11.07;7.90;;;;;;;;;;5131107;27;22580;-43
2023/06/06 05:40:50;;;;;;;13.55;9.57;;;;;;;;;;5130336;27;20062;-60
2023/06/06 05:43:17;;;;;;;14.35;9.70;;;;;;;;;;5129656;27;20137;-61
2023/06/06 05:45:45;;;;;;;12.50;9.38;;;;;;;;;;5126900;27;20056;-61
2023/06/06 05:48:12;;;;;;;12.48;8.88;;;;;;;;;;5130368;27;20059;-61
2023/06/06 05:50:39;;;;;;;12.75;9.65;;;;;;;;;;5128846;27;20054;-61
2023/06/06 05:53:06;;;;;;;12.45;8.70;;;;;;;;;;5128823;27;20051;-61
2023/06/06 05:55:34;;;;;;;10.65;8.63;;;;;;;;;;5127433;27;20059;-61
2023/06/06 05:58:01;;;;;;;11.15;8.85;;;;;;;;;;5130521;27;20058;-61
2023/06/06 06:00:29;;;;;;;14.20;9.05;;;;;;;;;;5132243;27;20058;-61
2023/06/06 06:02:58;;;;;;;12.55;8.82;;;;;;;;;;5134227;28;20054;-60
2023/06/06 06:05:27;;;;;;;13.30;8.70;;;;;;;;;;5133231;28;20058;-60
2023/06/06 06:07:54;;;;;;;15.38;9.18;;;;;;;;;;5132474;27;21085;-60
2023/06/06 06:10:21;;;;;;;11.32;9.82;;;;;;;;;;5133346;28;20062;-59
2023/06/06 06:12:48;;;;;;;11.55;8.82;;;;;;;;;;5133420;27;20051;-59
2023/06/06 06:15:15;;;;;;;12.77;9.40;;;;;;;;;;5131163;27;20055;-59
2023/06/06 06:17:42;;;;;;;11.73;9.30;;;;;;;;;;5112844;28;20495;-59
2023/06/06 06:20:11;;;;;;;12.70;9.40;;;;;;;;;;5112601;28;20047;-59
2023/06/06 06:22:38;;;;;;;;;;;;;;;;;;5113282;28;20058;-59
2023/06/06 06:25:08;;;;;;;12.27;8.95;;;;;;;;;;5113164;28;19927;-59
2023/06/06 06:27:35;;;;;;;13.65;9.07;;;;;;;;;;5119549;27;20050;-59
2023/06/06 06:30:04;;;;;;;13.98;8.65;;;;;;;;;;5133602;28;20499;-59
2023/06/06 06:32:32;;;;;;;10.88;7.90;;;;;;;;;;5132917;28;20047;-59
2023/06/06 06:34:59;;;;;;;12.65;8.85;;;;;;;;;;5133354;28;20404;-60
2023/06/06 06:37:29;;;;;;;15.25;8.95;;;;;;;;;;5133078;28;20055;-60
2023/06/06 06:39:56;;;;;;;11.27;8.68;;;;;;;;;;5132199;27;20400;-59
2023/06/06 06:42:23;;;;;;;13.95;8.60;;;;;;;;;;5131952;27;20054;-59
2023/06/06 06:44:50;;;;;;;11.80;8.23;;;;;;;;;;5132902;28;20055;-62
2023/06/06 06:47:17;;;;;;;11.57;8.43;;;;;;;;;;5133414;28;20058;-59
2023/06/06 06:49:43;;;;;;;13.00;8.63;;;;;;;;;;5135002;27;20062;-63
2023/06/06 06:52:11;;;;;;;10.60;7.72;;;;;;;;;;5136671;27;20128;-58
2023/06/06 06:54:46;;;;;;;10.82;8.27;;;;;;;;;;5136892;27;20054;-59
2023/06/06 06:57:13;;;;;;;12.85;8.27;;;;;;;;;;5135713;27;20054;-59
2023/06/06 06:59:41;;;;;;;11.80;8.15;;;;;;;;;;5136324;27;20043;-59
2023/06/06 07:02:08;;;;;;;10.23;8.10;;;;;;;;;;5134674;27;20058;-62
2023/06/06 07:04:36;;;;;;;25.45;10.05;;;;;;;;;;5136751;27;20519;-61
2023/06/06 07:07:03;;;;;;;11.00;8.95;;;;;;;;;;5136858;27;20054;-63
2023/06/06 07:09:30;;;;;;;15.55;9.95;;;;;;;;;;5136516;27;20051;-63
2023/06/06 07:11:58;;;;;;;11.48;7.90;;;;;;;;;;5136707;27;20051;-63
2023/06/06 07:14:25;;;;;;;15.02;8.93;;;;;;;;;;5134890;27;20376;-64
2023/06/06 07:16:52;;;;;;;12.95;9.60;;;;;;;;;;5136420;27;20055;-63
2023/06/06 07:19:19;;;;;;;13.60;8.95;;;;;;;;;;5136303;27;20464;-64
2023/06/06 07:21:46;;;;;;;11.48;8.68;;;;;;;;;;5136259;27;20042;-63
2023/06/06 07:24:13;;;;;;;12.02;8.23;;;;;;;;;;5136349;27;20499;-64
2023/06/06 07:26:42;;;;;;;10.57;8.18;;;;;;;;;;5135954;27;20078;-64
2023/06/06 07:29:10;;;;;;;10.98;8.88;;;;;;;;;;5136103;27;20054;-64
2023/06/06 07:31:38;;;;;;;12.63;9.10;;;;;;;;;;5136273;27;20063;-63
2023/06/06 07:34:05;;;;;;;10.82;8.40;;;;;;;;;;5136478;27;20510;-64
2023/06/06 07:36:32;;;;;;;11.70;8.75;;;;;;;;;;5136086;27;20051;-63
2023/06/06 07:38:58;;;;;;;13.48;9.30;;;;;;;;;;5135815;27;20059;-63
2023/06/06 07:41:29;;;;;;;10.52;7.95;;;;;;;;;;5136004;27;20058;-63
2023/06/06 07:43:56;;;;;;;10.90;8.07;;;;;;;;;;5131540;27;20050;-63
2023/06/06 07:46:25;;;;;;;14.93;8.43;;;;;;;;;;5134517;27;20051;-63
2023/06/06 07:48:52;;;;;;;14.43;9.02;;;;;;;;;;5134535;27;20051;-63
2023/06/06 07:51:19;;;;;;;13.32;10.45;;;;;;;;;;5135511;27;20062;-63
2023/06/06 07:53:48;;;;;;;10.63;8.00;;;;;;;;;;5135950;27;20044;-62
2023/06/06 07:56:15;;;;;;;11.48;9.23;;;;;;;;;;5135598;27;20061;-63
2023/06/06 07:58:43;;;;;;;10.30;8.13;;;;;;;;;;5136050;27;20047;-63
2023/06/06 08:01:10;;;;;;;15.02;9.35;;;;;;;;;;5134581;27;20070;-63
2023/06/06 08:03:39;;;;;;;12.85;8.60;;;;;;;;;;5136041;27;20399;-63
2023/06/06 08:06:06;;;;;;;10.40;7.20;;;;;;;;;;5135692;27;20051;-63
2023/06/06 08:08:33;;;;;;;12.98;8.07;;;;;;;;;;5134486;27;20054;-63
2023/06/06 08:10:59;;;;;;;10.80;8.05;;;;;;;;;;5135757;27;20047;-63
2023/06/06 08:13:26;;;;;;;13.18;8.02;;;;;;;;;;5134256;27;20047;-64
2023/06/06 08:15:53;;;;;;;10.95;8.05;;;;;;;;;;5135400;27;20047;-64
2023/06/06 08:18:20;;;;;;;11.45;8.00;;;;;;;;;;5132148;27;20419;-63
2023/06/06 08:20:50;;;;;;;11.63;7.10;;;;;;;;;;5135640;27;20047;-64
2023/06/06 08:23:17;;;;;;;10.68;7.10;;;;;;;;;;5135430;27;20055;-63
2023/06/06 08:25:43;;;;;;;8.60;7.70;;;;;;;;;;5135226;27;20044;-63
2023/06/06 08:28:10;;;;;;;12.45;7.53;;;;;;;;;;5135441;27;20051;-61
2023/06/06 08:30:37;;;;;;;9.98;7.38;;;;;;;;;;5134535;27;20043;-63
2023/06/06 08:33:04;;;;;;;8.27;6.47;;;;;;;;;;5135089;27;20050;-63
2023/06/06 08:35:31;;;;;;;9.57;7.40;;;;;;;;;;5134783;27;20054;-62
2023/06/06 08:38:00;;;;;;;10.25;7.80;;;;;;;;;;5135026;27;20047;-63
2023/06/06 08:40:30;;;;;;;8.60;6.82;;;;;;;;;;5134897;27;20051;-62
2023/06/06 08:42:57;;;;;;;10.77;6.90;;;;;;;;;;5135072;27;20407;-63
2023/06/06 08:45:24;;;;;;;7.45;6.68;;;;;;;;;;5132776;27;20047;-63
2023/06/06 08:47:52;;;;;;;9.40;7.18;;;;;;;;;;5135083;27;20061;-60
2023/06/06 08:50:20;;;;;;;8.27;7.05;;;;;;;;;;5134575;27;20051;-60
2023/06/06 08:52:48;;;;;;;8.38;6.85;;;;;;;;;;5134781;27;20062;-60
2023/06/06 08:55:16;;;;;;;8.60;6.40;;;;;;;;;;5134037;27;20043;-61
2023/06/06 08:57:43;;;;;;;;;;;;;;;;;;5135023;27;20062;-61
2023/06/06 09:00:18;;;;;;;8.30;7.30;;;;;;;;;;5133420;27;19920;-61
2023/06/06 09:02:47;;;;;;;10.20;7.43;;;;;;;;;;5134683;27;20082;-61
2023/06/06 09:05:15;;;;;;;7.55;6.60;;;;;;;;;;5134419;27;20058;-61
2023/06/06 09:07:42;;;;;;;8.52;6.97;;;;;;;;;;5133811;27;20051;-61
2023/06/06 09:10:09;;;;;;;7.40;6.70;;;;;;;;;;5134033;27;20491;-61
2023/06/06 09:12:43;;;;;;;7.95;6.53;;;;;;;;;;5133926;27;20081;-61
2023/06/06 09:15:11;;;;;;;9.02;6.82;;;;;;;;;;5132937;27;20070;-61
2023/06/06 09:17:38;;;;;;;7.13;6.43;;;;;;;;;;5140204;27;20062;-63
2023/06/06 09:20:08;;;;;;;8.02;6.55;;;;;;;;;;5134590;27;20062;-63
2023/06/06 09:22:39;;;;;;;7.32;6.47;;;;;;;;;;5134129;27;20073;-63
2023/06/06 09:25:06;;;;;;;8.38;6.47;;;;;;;;;;5134299;27;20062;-63
2023/06/06 09:27:33;;;;;;;7.25;6.55;;;;;;;;;;5134101;27;20059;-63
2023/06/06 09:30:01;;;;;;;7.90;6.68;;;;;;;;;;5133363;27;20043;-63
2023/06/06 09:32:29;;;;;;;7.68;6.82;;;;;;;;;;5133121;27;20047;-63
2023/06/06 09:34:59;;;;;;;6.47;5.88;;;;;;;;;;5134057;27;20062;-63
2023/06/06 09:37:28;;;;;;;7.05;6.20;;;;;;;;;;5133867;27;20051;-63
2023/06/06 09:40:09;;;;;;;9.35;6.18;;;;;;;;;;5134040;27;20420;-63
2023/06/06 09:42:37;;;;;;;7.72;6.80;;;;;;;;;;5130928;27;20055;-63
2023/06/06 09:45:24;;;;;;;7.85;6.25;;;;;;;;;;5134006;27;20051;-61
2023/06/06 09:47:51;;;;;;;7.60;5.95;;;;;;;;;;5133595;27;20051;-63
2023/06/06 09:50:19;;;;;;;9.85;6.90;;;;;;;;;;5133909;27;20051;-63
2023/06/06 09:52:46;;;;;;;11.68;6.00;;;;;;;;;;5133553;27;20059;-63
2023/06/06 09:55:13;;;;;;;7.97;6.00;;;;;;;;;;5133079;27;20047;-63
2023/06/06 09:57:41;;;;;;;7.72;6.03;;;;;;;;;;5133796;27;20054;-63
2023/06/06 10:00:10;;;;;;;6.60;5.68;;;;;;;;;;5132209;27;20062;-63
2023/06/06 10:02:45;;;;;;;8.90;6.65;;;;;;;;;;5133820;28;20051;-62
2023/06/06 10:05:13;;;;;;;7.88;6.00;;;;;;;;;;5133281;28;20050;-62
2023/06/06 10:07:41;;;;;;;8.40;6.35;;;;;;;;;;5133791;28;20055;-63
2023/06/06 10:10:10;;;;;;;9.50;6.28;;;;;;;;;;5133689;28;20054;-62
2023/06/06 10:12:43;;;;;;;7.35;6.40;;;;;;;;;;5133531;28;20051;-63
2023/06/06 10:15:11;;;;;;;7.97;6.20;;;;;;;;;;5130261;27;20051;-62
2023/06/06 10:17:40;;;;;;;8.15;5.90;;;;;;;;;;5122992;27;20383;-62
2023/06/06 10:20:10;;;;;;;7.45;5.68;;;;;;;;;;5132397;27;20054;-63
2023/06/06 10:22:37;;;;;;;7.60;6.28;;;;;;;;;;5131712;27;20055;-63
2023/06/06 10:25:04;;;;;;;8.60;5.90;;;;;;;;;;5138055;27;20047;-63
2023/06/06 10:27:41;;;;;;;8.03;5.43;;;;;;;;;;5137509;27;20055;-63
2023/06/06 10:30:10;;;;;;;6.70;6.00;;;;;;;;;;5136583;27;20046;-64
2023/06/06 10:32:44;;;;;;;6.85;5.35;;;;;;;;;;5137656;27;20055;-63
2023/06/06 10:35:12;;;;;;;6.93;6.00;;;;;;;;;;5137788;27;20047;-63
2023/06/06 10:37:39;;;;;;;7.47;5.50;;;;;;;;;;5137354;27;20047;-63
2023/06/06 10:40:09;;;;;;;5.97;5.00;;;;;;;;;;5137590;27;20065;-63
2023/06/06 10:42:39;;;;;;;7.43;6.35;;;;;;;;;;5135796;27;20200;-63
2023/06/06 10:45:07;;;;;;;9.00;5.78;;;;;;;;;;5136156;27;20499;-63
2023/06/06 10:47:35;;;;;;;5.82;5.20;;;;;;;;;;5116686;28;20051;-63
2023/06/06 10:50:26;;;;;;;8.07;5.05;;;;;;;;;;5116697;28;20533;-63
2023/06/06 10:52:56;;;;;;;5.97;5.22;;;;;;;;;;5096229;28;20048;-63
2023/06/06 10:55:41;;;;;;;8.07;5.50;;;;;;;;;;5116527;28;20427;-62
2023/06/06 10:58:09;;;;;;;8.50;5.75;;;;;;;;;;5116676;28;20056;-61
2023/06/06 11:00:37;;;;;;;8.57;5.22;;;;;;;;;;5123527;27;20050;-61
2023/06/06 11:03:07;;;;;;;6.22;5.18;;;;;;;;;;5135392;27;20066;-61
2023/06/06 11:05:34;;;;;;;6.57;5.20;;;;;;;;;;5136698;27;20047;-61
2023/06/06 11:08:02;;;;;;;5.57;4.88;;;;;;;;;;5136494;27;20053;-61
2023/06/06 11:10:45;;;;;;;7.28;4.97;;;;;;;;;;5136603;27;20054;-61
2023/06/06 11:13:25;;;;;;;5.85;4.95;;;;;;;;;;5136978;27;20388;-61
2023/06/06 11:15:56;;;;;;;5.20;4.43;;;;;;;;;;5137047;27;20492;-61
2023/06/06 11:18:36;;;;;;;6.03;5.20;;;;;;;;;;5136285;27;20047;-61
2023/06/06 11:21:03;;;;;;;6.03;4.90;;;;;;;;;;5137063;27;20051;-61
2023/06/06 11:23:39;;;;;;;6.13;4.55;;;;;;;;;;5136728;27;20043;-61
2023/06/06 11:26:09;;;;;;;10.35;4.47;;;;;;;;;;5136386;27;20043;-61
2023/06/06 11:28:36;;;;;;;5.13;3.83;;;;;;;;;;5136748;27;20501;-61
2023/06/06 11:31:03;;;;;;;5.75;4.55;;;;;;;;;;5135176;27;20052;-61
2023/06/06 11:33:29;;;;;;;6.82;4.10;;;;;;;;;;5136472;27;20525;-62
2023/06/06 11:35:56;;;;;;;4.60;4.07;;;;;;;;;;5135144;27;20051;-61
2023/06/06 11:38:23;;;;;;;6.45;3.97;;;;;;;;;;5136338;27;20058;-61
2023/06/06 11:40:51;;;;;;;4.90;4.10;;;;;;;;;;5134736;27;20062;-61
2023/06/06 11:43:18;;;;;;;7.68;4.22;;;;;;;;;;5136338;27;20054;-61
2023/06/06 11:45:45;;;;;;;7.90;5.23;;;;;;;;;;5135791;27;20070;-61
2023/06/06 11:48:22;;;;;;;5.15;3.92;;;;;;;;;;5135468;27;20058;-62
2023/06/06 11:50:49;;;;;;;5.80;4.00;;;;;;;;;;5135847;27;20407;-61
2023/06/06 11:53:16;;;;;;;;;;;;;;;;;;5136599;27;20051;-61
2023/06/06 11:55:43;;;;;;;6.70;3.60;;;;;;;;;;5135433;27;20284;-61
2023/06/06 11:58:11;;;;;;;4.43;3.30;;;;;;;;;;5136115;27;20055;-61
2023/06/06 12:00:39;;;;;;;5.90;3.28;;;;;;;;;;5135311;27;20059;-61
2023/06/06 12:03:06;;;;;;;4.82;3.33;;;;;;;;;;5132915;27;20054;-61
2023/06/06 12:05:34;;;;;;;5.47;3.00;;;;;;;;;;5135793;27;20499;-61
2023/06/06 12:08:00;;;;;;;4.23;2.80;;;;;;;;;;5133444;27;20043;-61
2023/06/06 12:10:28;;;;;;;4.95;3.03;;;;;;;;;;5135400;27;20047;-61
2023/06/06 12:12:55;;;;;;;;;;;;;;;;;;5136511;27;20411;-61
2023/06/06 12:15:27;;;;;;;5.13;2.90;;;;;;;;;;5134478;27;19926;-61
2023/06/06 12:17:54;;;;;;;6.20;3.10;;;;;;;;;;5132426;27;20399;-61
2023/06/06 12:20:24;;;;;;;5.53;3.08;;;;;;;;;;5135556;27;20051;-61
2023/06/06 12:22:52;;;;;;;3.92;3.38;;;;;;;;;;5135178;27;20498;-61
2023/06/06 12:25:23;;;;;;;6.82;3.30;;;;;;;;;;5135384;27;20055;-61
2023/06/06 12:27:53;;;;;;;5.85;3.63;;;;;;;;;;5135520;27;20058;-61
2023/06/06 12:30:31;;;;;;;5.60;3.35;;;;;;;;;;5134525;27;20404;-60
2023/06/06 12:32:59;;;;;;;6.03;3.35;;;;;;;;;;5134025;27;20066;-60
2023/06/06 12:35:25;;;;;;;8.10;3.28;;;;;;;;;;5134877;27;20054;-60
2023/06/06 12:37:52;;;;;;;5.25;2.80;;;;;;;;;;5135319;27;20058;-60
2023/06/06 12:40:20;;;;;;;6.35;3.15;;;;;;;;;;5134486;27;20392;-61
2023/06/06 12:42:53;;;;;;;4.72;3.15;;;;;;;;;;5135046;27;20502;-61
2023/06/06 12:45:20;;;;;;;5.15;2.88;;;;;;;;;;5134715;27;20051;-61
2023/06/06 12:47:51;;;;;;;5.03;2.83;;;;;;;;;;5131754;27;20039;-61
2023/06/06 12:50:18;;;;;;;5.68;3.50;;;;;;;;;;5134322;27;20415;-61
2023/06/06 12:52:45;;;;;;;6.07;3.42;;;;;;;;;;5134455;27;20059;-61
2023/06/06 12:55:12;;;;;;;3.80;3.10;;;;;;;;;;5134270;27;20074;-62
2023/06/06 12:57:39;;;;;;;6.53;3.30;;;;;;;;;;5134656;27;20047;-60
2023/06/06 13:00:08;;;;;;;5.07;3.10;;;;;;;;;;5134159;27;20058;-61
2023/06/06 13:02:34;;;;;;;4.68;2.92;;;;;;;;;;5133284;27;20051;-60
2023/06/06 13:05:03;;;;;;;3.63;2.60;;;;;;;;;;5134940;27;20062;-61
2023/06/06 13:07:30;;;;;;;5.90;3.05;;;;;;;;;;5134367;27;20050;-61
2023/06/06 13:09:59;;;;;;;6.47;3.58;;;;;;;;;;5134183;27;20047;-61
2023/06/06 13:12:26;;;;;;;4.38;3.10;;;;;;;;;;5134258;27;20051;-60
2023/06/06 13:14:55;;;;;;;4.10;3.10;;;;;;;;;;5133987;27;20058;-60
2023/06/06 13:17:22;;;;;;;4.75;3.63;;;;;;;;;;5132820;27;20051;-62
2023/06/06 13:19:49;;;;;;;4.65;2.80;;;;;;;;;;5133708;27;20055;-62
2023/06/06 13:22:18;;;;;;;3.75;3.05;;;;;;;;;;5133989;27;20047;-62
2023/06/06 13:24:45;;;;;;;4.18;3.00;;;;;;;;;;5133804;27;20058;-62
2023/06/06 13:27:13;;;;;;;5.20;3.25;;;;;;;;;;5137589;27;20043;-61
2023/06/06 13:29:39;;;;;;;4.70;3.43;;;;;;;;;;5134402;27;20051;-61
2023/06/06 13:32:07;;;;;;;5.00;3.00;;;;;;;;;;5132949;27;21089;-60
2023/06/06 13:34:33;;;;;;;6.70;3.38;;;;;;;;;;5133856;27;20376;-60
2023/06/06 13:37:01;;;;;;;5.03;3.30;;;;;;;;;;5133550;27;20054;-61
2023/06/06 13:39:29;;;;;;;4.55;3.20;;;;;;;;;;5134027;27;20062;-60
2023/06/06 13:41:56;;;;;;;4.38;3.42;;;;;;;;;;5133955;27;20392;-60
2023/06/06 13:44:23;;;;;;;4.95;3.00;;;;;;;;;;5133741;27;20054;-60
2023/06/06 13:46:50;;;;;;;5.85;3.17;;;;;;;;;;5134131;27;20063;-60
2023/06/06 13:49:17;;;;;;;5.60;3.13;;;;;;;;;;5133460;27;20054;-60
2023/06/06 13:51:44;;;;;;;5.38;3.70;;;;;;;;;;5133488;27;20492;-60
2023/06/06 13:54:12;;;;;;;4.15;3.40;;;;;;;;;;5132734;27;20058;-60
2023/06/06 13:56:44;;;;;;;3.78;3.00;;;;;;;;;;5132941;27;20054;-60
2023/06/06 13:59:10;;;;;;;5.32;3.83;;;;;;;;;;5132861;27;20062;-61
2023/06/06 14:01:40;;;;;;;5.60;3.28;;;;;;;;;;5132265;27;20079;-60
2023/06/06 14:04:07;;;;;;;4.88;3.33;;;;;;;;;;5133518;28;20051;-60
2023/06/06 14:06:35;;;;;;;4.70;3.30;;;;;;;;;;5133112;27;20058;-60
2023/06/06 14:09:02;;;;;;;4.95;3.45;;;;;;;;;;5132881;27;20050;-60
2023/06/06 14:11:29;;;;;;;5.38;3.17;;;;;;;;;;5132780;28;20051;-60
2023/06/06 14:14:00;;;;;;;4.63;3.65;;;;;;;;;;5133112;28;20051;-60
2023/06/06 14:16:27;;;;;;;5.25;3.70;;;;;;;;;;5132761;27;20384;-62
2023/06/06 14:18:54;;;;;;;5.47;3.33;;;;;;;;;;5133237;28;20047;-63
2023/06/06 14:21:28;;;;;;;4.70;3.25;;;;;;;;;;5131276;27;20070;-61
2023/06/06 14:23:55;;;;;;;4.97;2.90;;;;;;;;;;5133068;28;20047;-61
2023/06/06 14:26:22;;;;;;;6.97;3.20;;;;;;;;;;5133129;28;20051;-61
2023/06/06 14:28:49;;;;;;;5.03;3.05;;;;;;;;;;5134331;28;20051;-62
2023/06/06 14:31:18;;;;;;;4.93;3.67;;;;;;;;;;5132464;27;20054;-60
2023/06/06 14:33:45;;;;;;;4.10;2.90;;;;;;;;;;5133321;28;20055;-60
2023/06/06 14:36:12;;;;;;;5.43;3.08;;;;;;;;;;5133228;28;20047;-60
2023/06/06 14:38:40;;;;;;;6.15;3.60;;;;;;;;;;5133169;28;20494;-60
2023/06/06 14:41:06;;;;;;;5.10;3.20;;;;;;;;;;5132740;28;20412;-60
2023/06/06 14:43:33;;;;;;;4.50;2.90;;;;;;;;;;5132438;28;20047;-60
2023/06/06 14:46:00;;;;;;;4.03;3.00;;;;;;;;;;5130951;27;20055;-60